sensor_id;sensor_type;location;lat;lon;timestamp;P1;durP1;ratioP1;P2;durP2;ratioP2
34019;SDS011;20895;51.034;3.742;2024-03-07T00:01:59;23.00;;;20.02;;
34019;SDS011;20895;51.034;3.742;2024-03-07T00:04:24;27.40;;;21.00;;
34019;SDS011;20895;51.034;3.742;2024-03-07T00:06:50;24.52;;;21.38;;
34019;SDS011;20895;51.034;3.742;2024-03-07T00:09:15;25.80;;;21.60;;
34019;SDS011;20895;51.034;3.742;2024-03-07T00:11:41;28.08;;;21.88;;
34019;SDS011;20895;51.034;3.742;2024-03-07T00:14:06;24.52;;;21.88;;
34019;SDS011;20895;51.034;3.742;2024-03-07T00:16:32;22.88;;;20.15;;
34019;SDS011;20895;51.034;3.742;2024-03-07T00:18:59;26.48;;;22.35;;
34019;SDS011;20895;51.034;3.742;2024-03-07T00:21:24;23.13;;;20.52;;
34019;SDS011;20895;51.034;3.742;2024-03-07T00:23:49;27.02;;;23.30;;
34019;SDS011;20895;51.034;3.742;2024-03-07T00:26:15;23.95;;;20.58;;
34019;SDS011;20895;51.034;3.742;2024-03-07T00:28:40;23.35;;;20.95;;
34019;SDS011;20895;51.034;3.742;2024-03-07T00:31:05;26.38;;;21.98;;
34019;SDS011;20895;51.034;3.742;2024-03-07T00:33:32;25.90;;;21.77;;
34019;SDS011;20895;51.034;3.742;2024-03-07T00:35:58;26.08;;;22.58;;
34019;SDS011;20895;51.034;3.742;2024-03-07T00:38:23;26.90;;;21.90;;
34019;SDS011;20895;51.034;3.742;2024-03-07T00:40:48;26.40;;;23.08;;
34019;SDS011;20895;51.034;3.742;2024-03-07T00:43:14;28.13;;;22.65;;
34019;SDS011;20895;51.034;3.742;2024-03-07T00:45:40;27.20;;;22.80;;
34019;SDS011;20895;51.034;3.742;2024-03-07T00:48:05;26.58;;;23.40;;
34019;SDS011;20895;51.034;3.742;2024-03-07T00:50:30;25.92;;;23.13;;
34019;SDS011;20895;51.034;3.742;2024-03-07T00:52:57;28.52;;;24.38;;
34019;SDS011;20895;51.034;3.742;2024-03-07T00:55:22;28.58;;;24.20;;
34019;SDS011;20895;51.034;3.742;2024-03-07T00:57:48;29.23;;;23.90;;
34019;SDS011;20895;51.034;3.742;2024-03-07T01:00:13;33.22;;;25.13;;
34019;SDS011;20895;51.034;3.742;2024-03-07T01:02:39;30.30;;;25.33;;
34019;SDS011;20895;51.034;3.742;2024-03-07T01:05:08;29.85;;;25.60;;
34019;SDS011;20895;51.034;3.742;2024-03-07T01:07:35;28.48;;;25.05;;
34019;SDS011;20895;51.034;3.742;2024-03-07T01:10:00;31.08;;;26.23;;
34019;SDS011;20895;51.034;3.742;2024-03-07T01:12:26;31.13;;;25.50;;
34019;SDS011;20895;51.034;3.742;2024-03-07T01:14:55;30.05;;;25.80;;
34019;SDS011;20895;51.034;3.742;2024-03-07T01:17:22;36.47;;;27.00;;
34019;SDS011;20895;51.034;3.742;2024-03-07T01:19:47;32.72;;;27.98;;
34019;SDS011;20895;51.034;3.742;2024-03-07T01:22:12;33.33;;;27.15;;
34019;SDS011;20895;51.034;3.742;2024-03-07T01:24:38;40.70;;;28.83;;
34019;SDS011;20895;51.034;3.742;2024-03-07T01:27:04;34.67;;;29.17;;
34019;SDS011;20895;51.034;3.742;2024-03-07T01:29:30;35.55;;;26.88;;
34019;SDS011;20895;51.034;3.742;2024-03-07T01:31:55;32.53;;;26.95;;
34019;SDS011;20895;51.034;3.742;2024-03-07T01:34:20;38.00;;;28.88;;
34019;SDS011;20895;51.034;3.742;2024-03-07T01:36:46;33.50;;;27.95;;
34019;SDS011;20895;51.034;3.742;2024-03-07T01:39:11;36.63;;;29.95;;
34019;SDS011;20895;51.034;3.742;2024-03-07T01:41:36;39.38;;;29.42;;
34019;SDS011;20895;51.034;3.742;2024-03-07T01:44:01;35.05;;;29.80;;
34019;SDS011;20895;51.034;3.742;2024-03-07T01:46:27;35.35;;;29.50;;
34019;SDS011;20895;51.034;3.742;2024-03-07T01:48:53;35.85;;;29.50;;
34019;SDS011;20895;51.034;3.742;2024-03-07T01:51:18;36.60;;;30.83;;
34019;SDS011;20895;51.034;3.742;2024-03-07T01:53:44;40.58;;;30.83;;
34019;SDS011;20895;51.034;3.742;2024-03-07T01:56:10;40.17;;;29.70;;
34019;SDS011;20895;51.034;3.742;2024-03-07T01:58:36;39.70;;;31.85;;
34019;SDS011;20895;51.034;3.742;2024-03-07T02:01:01;38.08;;;30.30;;
34019;SDS011;20895;51.034;3.742;2024-03-07T02:03:27;37.22;;;31.02;;
34019;SDS011;20895;51.034;3.742;2024-03-07T02:05:52;45.35;;;32.47;;
34019;SDS011;20895;51.034;3.742;2024-03-07T02:08:18;41.10;;;32.78;;
34019;SDS011;20895;51.034;3.742;2024-03-07T02:10:44;42.83;;;31.65;;
34019;SDS011;20895;51.034;3.742;2024-03-07T02:13:09;47.70;;;32.70;;
34019;SDS011;20895;51.034;3.742;2024-03-07T02:15:35;43.28;;;32.53;;
34019;SDS011;20895;51.034;3.742;2024-03-07T02:18:00;42.15;;;34.75;;
34019;SDS011;20895;51.034;3.742;2024-03-07T02:20:25;46.13;;;32.58;;
34019;SDS011;20895;51.034;3.742;2024-03-07T02:22:54;48.00;;;34.83;;
34019;SDS011;20895;51.034;3.742;2024-03-07T02:25:19;42.72;;;31.65;;
34019;SDS011;20895;51.034;3.742;2024-03-07T02:27:45;43.97;;;32.55;;
34019;SDS011;20895;51.034;3.742;2024-03-07T02:30:10;46.00;;;34.78;;
34019;SDS011;20895;51.034;3.742;2024-03-07T02:32:37;45.17;;;33.90;;
34019;SDS011;20895;51.034;3.742;2024-03-07T02:35:03;44.40;;;34.33;;
34019;SDS011;20895;51.034;3.742;2024-03-07T02:37:28;46.35;;;35.05;;
34019;SDS011;20895;51.034;3.742;2024-03-07T02:39:54;44.08;;;35.13;;
34019;SDS011;20895;51.034;3.742;2024-03-07T02:42:19;46.97;;;34.72;;
34019;SDS011;20895;51.034;3.742;2024-03-07T02:44:44;47.65;;;36.00;;
34019;SDS011;20895;51.034;3.742;2024-03-07T02:47:10;48.90;;;38.30;;
34019;SDS011;20895;51.034;3.742;2024-03-07T02:49:35;50.78;;;36.45;;
34019;SDS011;20895;51.034;3.742;2024-03-07T02:52:00;50.40;;;36.33;;
34019;SDS011;20895;51.034;3.742;2024-03-07T02:54:25;46.53;;;35.78;;
34019;SDS011;20895;51.034;3.742;2024-03-07T02:56:51;49.42;;;37.72;;
34019;SDS011;20895;51.034;3.742;2024-03-07T02:59:16;51.13;;;36.25;;
34019;SDS011;20895;51.034;3.742;2024-03-07T03:01:44;46.45;;;34.95;;
34019;SDS011;20895;51.034;3.742;2024-03-07T03:04:10;54.90;;;38.13;;
34019;SDS011;20895;51.034;3.742;2024-03-07T03:06:35;55.53;;;38.92;;
34019;SDS011;20895;51.034;3.742;2024-03-07T03:09:00;52.53;;;38.00;;
34019;SDS011;20895;51.034;3.742;2024-03-07T03:11:26;52.85;;;39.10;;
34019;SDS011;20895;51.034;3.742;2024-03-07T03:13:52;53.28;;;39.90;;
34019;SDS011;20895;51.034;3.742;2024-03-07T03:16:17;53.08;;;36.20;;
34019;SDS011;20895;51.034;3.742;2024-03-07T03:18:43;52.97;;;39.08;;
34019;SDS011;20895;51.034;3.742;2024-03-07T03:21:08;53.15;;;37.00;;
34019;SDS011;20895;51.034;3.742;2024-03-07T03:23:33;53.28;;;38.38;;
34019;SDS011;20895;51.034;3.742;2024-03-07T03:25:59;53.20;;;39.33;;
34019;SDS011;20895;51.034;3.742;2024-03-07T03:28:25;58.17;;;40.95;;
34019;SDS011;20895;51.034;3.742;2024-03-07T03:30:50;59.40;;;39.67;;
34019;SDS011;20895;51.034;3.742;2024-03-07T03:33:16;59.35;;;42.10;;
34019;SDS011;20895;51.034;3.742;2024-03-07T03:35:42;60.15;;;40.78;;
34019;SDS011;20895;51.034;3.742;2024-03-07T03:38:08;55.97;;;40.92;;
34019;SDS011;20895;51.034;3.742;2024-03-07T03:40:33;55.13;;;39.10;;
34019;SDS011;20895;51.034;3.742;2024-03-07T03:42:59;57.60;;;41.55;;
34019;SDS011;20895;51.034;3.742;2024-03-07T03:45:24;58.28;;;39.60;;
34019;SDS011;20895;51.034;3.742;2024-03-07T03:47:50;53.92;;;40.13;;
34019;SDS011;20895;51.034;3.742;2024-03-07T03:50:16;57.10;;;40.25;;
34019;SDS011;20895;51.034;3.742;2024-03-07T03:52:42;59.53;;;40.90;;
34019;SDS011;20895;51.034;3.742;2024-03-07T03:55:08;57.20;;;39.28;;
34019;SDS011;20895;51.034;3.742;2024-03-07T03:57:37;55.60;;;40.30;;
34019;SDS011;20895;51.034;3.742;2024-03-07T04:00:04;59.00;;;41.13;;
34019;SDS011;20895;51.034;3.742;2024-03-07T04:02:42;57.67;;;40.13;;
34019;SDS011;20895;51.034;3.742;2024-03-07T04:05:11;59.50;;;41.47;;
34019;SDS011;20895;51.034;3.742;2024-03-07T04:07:40;58.22;;;41.08;;
34019;SDS011;20895;51.034;3.742;2024-03-07T04:10:05;59.47;;;42.58;;
34019;SDS011;20895;51.034;3.742;2024-03-07T04:12:32;64.75;;;42.47;;
34019;SDS011;20895;51.034;3.742;2024-03-07T04:14:58;59.45;;;41.05;;
34019;SDS011;20895;51.034;3.742;2024-03-07T04:17:23;62.53;;;41.58;;
34019;SDS011;20895;51.034;3.742;2024-03-07T04:19:48;58.60;;;41.30;;
34019;SDS011;20895;51.034;3.742;2024-03-07T04:22:14;58.72;;;40.75;;
34019;SDS011;20895;51.034;3.742;2024-03-07T04:24:39;60.50;;;41.30;;
34019;SDS011;20895;51.034;3.742;2024-03-07T04:27:06;62.60;;;42.75;;
34019;SDS011;20895;51.034;3.742;2024-03-07T04:29:31;63.67;;;43.05;;
34019;SDS011;20895;51.034;3.742;2024-03-07T04:31:57;63.80;;;40.28;;
34019;SDS011;20895;51.034;3.742;2024-03-07T04:34:23;58.15;;;41.83;;
34019;SDS011;20895;51.034;3.742;2024-03-07T04:36:48;63.83;;;43.42;;
34019;SDS011;20895;51.034;3.742;2024-03-07T04:39:13;62.42;;;41.10;;
34019;SDS011;20895;51.034;3.742;2024-03-07T04:42:01;62.15;;;42.70;;
34019;SDS011;20895;51.034;3.742;2024-03-07T04:44:29;61.40;;;40.15;;
34019;SDS011;20895;51.034;3.742;2024-03-07T04:46:55;71.22;;;43.40;;
34019;SDS011;20895;51.034;3.742;2024-03-07T04:49:22;65.82;;;42.00;;
34019;SDS011;20895;51.034;3.742;2024-03-07T04:51:48;65.82;;;42.10;;
34019;SDS011;20895;51.034;3.742;2024-03-07T04:54:14;62.70;;;42.25;;
34019;SDS011;20895;51.034;3.742;2024-03-07T04:56:39;58.38;;;44.00;;
34019;SDS011;20895;51.034;3.742;2024-03-07T04:59:04;64.75;;;43.47;;
34019;SDS011;20895;51.034;3.742;2024-03-07T05:01:30;60.22;;;41.38;;
34019;SDS011;20895;51.034;3.742;2024-03-07T05:03:56;66.35;;;43.45;;
34019;SDS011;20895;51.034;3.742;2024-03-07T05:06:21;61.15;;;42.60;;
34019;SDS011;20895;51.034;3.742;2024-03-07T05:08:46;58.35;;;42.47;;
34019;SDS011;20895;51.034;3.742;2024-03-07T05:11:12;64.15;;;42.05;;
34019;SDS011;20895;51.034;3.742;2024-03-07T05:13:38;64.43;;;42.70;;
34019;SDS011;20895;51.034;3.742;2024-03-07T05:16:03;66.53;;;42.80;;
34019;SDS011;20895;51.034;3.742;2024-03-07T05:18:29;62.65;;;41.70;;
34019;SDS011;20895;51.034;3.742;2024-03-07T05:20:54;68.97;;;43.47;;
34019;SDS011;20895;51.034;3.742;2024-03-07T05:23:19;62.50;;;43.97;;
34019;SDS011;20895;51.034;3.742;2024-03-07T05:25:45;61.28;;;42.28;;
34019;SDS011;20895;51.034;3.742;2024-03-07T05:28:11;67.18;;;42.35;;
34019;SDS011;20895;51.034;3.742;2024-03-07T05:30:36;67.13;;;42.17;;
34019;SDS011;20895;51.034;3.742;2024-03-07T05:33:02;61.80;;;42.47;;
34019;SDS011;20895;51.034;3.742;2024-03-07T05:35:27;65.88;;;41.30;;
34019;SDS011;20895;51.034;3.742;2024-03-07T05:37:54;67.47;;;41.28;;
34019;SDS011;20895;51.034;3.742;2024-03-07T05:40:21;62.30;;;41.40;;
34019;SDS011;20895;51.034;3.742;2024-03-07T05:42:46;67.07;;;41.33;;
34019;SDS011;20895;51.034;3.742;2024-03-07T05:45:12;68.65;;;42.67;;
34019;SDS011;20895;51.034;3.742;2024-03-07T05:47:38;63.45;;;41.17;;
34019;SDS011;20895;51.034;3.742;2024-03-07T05:50:04;68.13;;;42.03;;
34019;SDS011;20895;51.034;3.742;2024-03-07T05:52:29;63.13;;;42.17;;
34019;SDS011;20895;51.034;3.742;2024-03-07T05:54:54;67.85;;;43.00;;
34019;SDS011;20895;51.034;3.742;2024-03-07T05:57:21;67.80;;;43.22;;
34019;SDS011;20895;51.034;3.742;2024-03-07T05:59:47;64.63;;;41.35;;
34019;SDS011;20895;51.034;3.742;2024-03-07T06:02:12;69.10;;;41.35;;
34019;SDS011;20895;51.034;3.742;2024-03-07T06:04:40;66.00;;;42.78;;
34019;SDS011;20895;51.034;3.742;2024-03-07T06:07:05;69.75;;;44.38;;
34019;SDS011;20895;51.034;3.742;2024-03-07T06:09:30;65.55;;;42.55;;
34019;SDS011;20895;51.034;3.742;2024-03-07T06:11:56;68.38;;;44.08;;
34019;SDS011;20895;51.034;3.742;2024-03-07T06:14:21;63.95;;;42.78;;
34019;SDS011;20895;51.034;3.742;2024-03-07T06:16:48;69.63;;;43.67;;
34019;SDS011;20895;51.034;3.742;2024-03-07T06:19:13;71.20;;;43.40;;
34019;SDS011;20895;51.034;3.742;2024-03-07T06:21:39;73.65;;;44.00;;
34019;SDS011;20895;51.034;3.742;2024-03-07T06:24:04;70.25;;;45.08;;
34019;SDS011;20895;51.034;3.742;2024-03-07T06:26:31;70.65;;;44.03;;
34019;SDS011;20895;51.034;3.742;2024-03-07T06:29:05;64.95;;;43.03;;
34019;SDS011;20895;51.034;3.742;2024-03-07T06:31:31;62.40;;;42.75;;
34019;SDS011;20895;51.034;3.742;2024-03-07T06:33:56;65.78;;;42.03;;
34019;SDS011;20895;51.034;3.742;2024-03-07T06:36:22;69.15;;;43.05;;
34019;SDS011;20895;51.034;3.742;2024-03-07T06:38:47;76.57;;;46.40;;
34019;SDS011;20895;51.034;3.742;2024-03-07T06:41:12;67.40;;;41.88;;
34019;SDS011;20895;51.034;3.742;2024-03-07T06:43:39;71.15;;;40.92;;
34019;SDS011;20895;51.034;3.742;2024-03-07T06:46:04;64.55;;;41.45;;
34019;SDS011;20895;51.034;3.742;2024-03-07T06:48:29;65.88;;;44.33;;
34019;SDS011;20895;51.034;3.742;2024-03-07T06:50:54;67.55;;;43.65;;
34019;SDS011;20895;51.034;3.742;2024-03-07T06:53:20;84.07;;;45.20;;
34019;SDS011;20895;51.034;3.742;2024-03-07T06:55:45;70.10;;;43.95;;
34019;SDS011;20895;51.034;3.742;2024-03-07T06:58:10;68.07;;;42.28;;
34019;SDS011;20895;51.034;3.742;2024-03-07T07:00:36;72.78;;;44.70;;
34019;SDS011;20895;51.034;3.742;2024-03-07T07:03:01;62.55;;;42.08;;
34019;SDS011;20895;51.034;3.742;2024-03-07T07:05:30;70.95;;;44.67;;
34019;SDS011;20895;51.034;3.742;2024-03-07T07:07:55;67.20;;;44.20;;
34019;SDS011;20895;51.034;3.742;2024-03-07T07:10:20;68.07;;;44.50;;
34019;SDS011;20895;51.034;3.742;2024-03-07T07:12:49;71.28;;;43.20;;
34019;SDS011;20895;51.034;3.742;2024-03-07T07:15:15;69.13;;;43.50;;
34019;SDS011;20895;51.034;3.742;2024-03-07T07:17:41;68.25;;;42.95;;
34019;SDS011;20895;51.034;3.742;2024-03-07T07:20:07;68.43;;;42.50;;
34019;SDS011;20895;51.034;3.742;2024-03-07T07:22:35;69.75;;;43.80;;
34019;SDS011;20895;51.034;3.742;2024-03-07T07:25:00;59.92;;;42.45;;
34019;SDS011;20895;51.034;3.742;2024-03-07T07:27:26;70.47;;;41.75;;
34019;SDS011;20895;51.034;3.742;2024-03-07T07:29:51;70.13;;;42.55;;
34019;SDS011;20895;51.034;3.742;2024-03-07T07:32:16;65.03;;;43.10;;
34019;SDS011;20895;51.034;3.742;2024-03-07T07:34:42;65.45;;;43.13;;
34019;SDS011;20895;51.034;3.742;2024-03-07T07:37:08;64.18;;;42.05;;
34019;SDS011;20895;51.034;3.742;2024-03-07T07:39:34;60.70;;;42.35;;
34019;SDS011;20895;51.034;3.742;2024-03-07T07:41:59;69.65;;;42.92;;
34019;SDS011;20895;51.034;3.742;2024-03-07T07:44:24;64.07;;;42.72;;
34019;SDS011;20895;51.034;3.742;2024-03-07T07:46:50;62.33;;;42.95;;
34019;SDS011;20895;51.034;3.742;2024-03-07T07:49:15;65.68;;;44.03;;
34019;SDS011;20895;51.034;3.742;2024-03-07T07:51:41;69.47;;;42.35;;
34019;SDS011;20895;51.034;3.742;2024-03-07T07:54:06;71.70;;;43.30;;
34019;SDS011;20895;51.034;3.742;2024-03-07T07:56:34;63.10;;;39.85;;
34019;SDS011;20895;51.034;3.742;2024-03-07T07:58:59;70.47;;;41.60;;
34019;SDS011;20895;51.034;3.742;2024-03-07T08:01:25;68.93;;;39.40;;
34019;SDS011;20895;51.034;3.742;2024-03-07T08:03:50;64.47;;;41.97;;
34019;SDS011;20895;51.034;3.742;2024-03-07T08:06:16;71.00;;;42.22;;
34019;SDS011;20895;51.034;3.742;2024-03-07T08:08:42;71.70;;;42.83;;
34019;SDS011;20895;51.034;3.742;2024-03-07T08:11:07;71.55;;;44.13;;
34019;SDS011;20895;51.034;3.742;2024-03-07T08:13:34;72.95;;;43.35;;
34019;SDS011;20895;51.034;3.742;2024-03-07T08:16:00;69.93;;;43.13;;
34019;SDS011;20895;51.034;3.742;2024-03-07T08:18:25;71.55;;;42.75;;
34019;SDS011;20895;51.034;3.742;2024-03-07T08:20:52;63.78;;;39.17;;
34019;SDS011;20895;51.034;3.742;2024-03-07T08:23:17;73.05;;;40.85;;
34019;SDS011;20895;51.034;3.742;2024-03-07T08:25:42;65.20;;;38.92;;
34019;SDS011;20895;51.034;3.742;2024-03-07T08:28:08;77.55;;;42.97;;
34019;SDS011;20895;51.034;3.742;2024-03-07T08:30:33;74.88;;;44.45;;
34019;SDS011;20895;51.034;3.742;2024-03-07T08:33:00;75.75;;;43.95;;
34019;SDS011;20895;51.034;3.742;2024-03-07T08:35:27;75.43;;;45.28;;
34019;SDS011;20895;51.034;3.742;2024-03-07T08:37:54;78.93;;;44.95;;
34019;SDS011;20895;51.034;3.742;2024-03-07T08:40:20;76.28;;;41.50;;
34019;SDS011;20895;51.034;3.742;2024-03-07T08:42:55;66.82;;;41.67;;
34019;SDS011;20895;51.034;3.742;2024-03-07T08:45:20;77.75;;;44.60;;
34019;SDS011;20895;51.034;3.742;2024-03-07T08:47:46;77.40;;;43.35;;
34019;SDS011;20895;51.034;3.742;2024-03-07T08:50:12;71.72;;;42.50;;
34019;SDS011;20895;51.034;3.742;2024-03-07T08:52:39;76.90;;;44.75;;
34019;SDS011;20895;51.034;3.742;2024-03-07T08:55:05;75.28;;;41.80;;
34019;SDS011;20895;51.034;3.742;2024-03-07T08:57:30;71.80;;;42.17;;
34019;SDS011;20895;51.034;3.742;2024-03-07T08:59:56;75.68;;;41.72;;
34019;SDS011;20895;51.034;3.742;2024-03-07T09:02:21;73.28;;;43.30;;
34019;SDS011;20895;51.034;3.742;2024-03-07T09:04:47;72.30;;;41.53;;
34019;SDS011;20895;51.034;3.742;2024-03-07T09:07:12;74.72;;;44.17;;
34019;SDS011;20895;51.034;3.742;2024-03-07T09:09:39;74.20;;;43.35;;
34019;SDS011;20895;51.034;3.742;2024-03-07T09:12:05;71.05;;;42.30;;
34019;SDS011;20895;51.034;3.742;2024-03-07T09:14:31;71.40;;;42.58;;
34019;SDS011;20895;51.034;3.742;2024-03-07T09:16:56;59.53;;;36.40;;
34019;SDS011;20895;51.034;3.742;2024-03-07T09:19:22;61.75;;;37.33;;
34019;SDS011;20895;51.034;3.742;2024-03-07T09:21:52;58.05;;;38.05;;
34019;SDS011;20895;51.034;3.742;2024-03-07T09:24:18;61.03;;;36.42;;
34019;SDS011;20895;51.034;3.742;2024-03-07T09:26:45;54.80;;;35.80;;
34019;SDS011;20895;51.034;3.742;2024-03-07T09:29:10;59.30;;;37.95;;
34019;SDS011;20895;51.034;3.742;2024-03-07T09:31:35;66.10;;;40.08;;
34019;SDS011;20895;51.034;3.742;2024-03-07T09:34:01;59.75;;;38.08;;
34019;SDS011;20895;51.034;3.742;2024-03-07T09:36:28;61.22;;;40.17;;
34019;SDS011;20895;51.034;3.742;2024-03-07T09:38:54;56.75;;;37.08;;
34019;SDS011;20895;51.034;3.742;2024-03-07T09:41:19;60.08;;;37.00;;
34019;SDS011;20895;51.034;3.742;2024-03-07T09:43:49;55.80;;;35.55;;
34019;SDS011;20895;51.034;3.742;2024-03-07T09:46:16;53.70;;;33.97;;
34019;SDS011;20895;51.034;3.742;2024-03-07T09:48:42;59.10;;;38.22;;
34019;SDS011;20895;51.034;3.742;2024-03-07T09:51:08;62.45;;;38.50;;
34019;SDS011;20895;51.034;3.742;2024-03-07T09:53:36;59.97;;;37.38;;
34019;SDS011;20895;51.034;3.742;2024-03-07T09:56:02;60.20;;;37.55;;
34019;SDS011;20895;51.034;3.742;2024-03-07T09:58:28;53.10;;;35.70;;
34019;SDS011;20895;51.034;3.742;2024-03-07T10:00:55;53.03;;;35.17;;
34019;SDS011;20895;51.034;3.742;2024-03-07T10:03:21;52.35;;;36.65;;
34019;SDS011;20895;51.034;3.742;2024-03-07T10:05:48;54.88;;;35.25;;
34019;SDS011;20895;51.034;3.742;2024-03-07T10:08:15;52.40;;;34.63;;
34019;SDS011;20895;51.034;3.742;2024-03-07T10:10:43;46.70;;;35.38;;
34019;SDS011;20895;51.034;3.742;2024-03-07T10:13:09;44.80;;;33.42;;
34019;SDS011;20895;51.034;3.742;2024-03-07T10:15:34;53.97;;;35.03;;
34019;SDS011;20895;51.034;3.742;2024-03-07T10:18:00;46.88;;;31.90;;
34019;SDS011;20895;51.034;3.742;2024-03-07T10:20:25;40.55;;;29.92;;
34019;SDS011;20895;51.034;3.742;2024-03-07T10:22:51;47.40;;;29.88;;
34019;SDS011;20895;51.034;3.742;2024-03-07T10:25:17;41.28;;;28.38;;
34019;SDS011;20895;51.034;3.742;2024-03-07T10:27:43;40.95;;;29.50;;
34019;SDS011;20895;51.034;3.742;2024-03-07T10:30:09;43.22;;;30.52;;
34019;SDS011;20895;51.034;3.742;2024-03-07T10:32:34;37.30;;;28.08;;
34019;SDS011;20895;51.034;3.742;2024-03-07T10:35:01;41.10;;;30.13;;
34019;SDS011;20895;51.034;3.742;2024-03-07T10:37:28;36.40;;;25.38;;
34019;SDS011;20895;51.034;3.742;2024-03-07T10:39:54;40.13;;;29.55;;
34019;SDS011;20895;51.034;3.742;2024-03-07T10:42:20;40.60;;;29.67;;
34019;SDS011;20895;51.034;3.742;2024-03-07T10:44:49;42.03;;;31.27;;
34019;SDS011;20895;51.034;3.742;2024-03-07T10:47:18;41.35;;;28.40;;
34019;SDS011;20895;51.034;3.742;2024-03-07T10:52:54;37.13;;;23.40;;
34019;SDS011;20895;51.034;3.742;2024-03-07T10:55:19;41.92;;;27.08;;
34019;SDS011;20895;51.034;3.742;2024-03-07T10:57:52;36.72;;;27.25;;
34019;SDS011;20895;51.034;3.742;2024-03-07T11:00:22;36.22;;;24.85;;
34019;SDS011;20895;51.034;3.742;2024-03-07T11:03:04;38.77;;;25.53;;
34019;SDS011;20895;51.034;3.742;2024-03-07T11:05:33;39.50;;;27.38;;
34019;SDS011;20895;51.034;3.742;2024-03-07T11:08:02;40.58;;;28.50;;
34019;SDS011;20895;51.034;3.742;2024-03-07T11:10:37;36.33;;;26.88;;
34019;SDS011;20895;51.034;3.742;2024-03-07T11:13:06;40.70;;;26.30;;
34019;SDS011;20895;51.034;3.742;2024-03-07T11:15:32;39.15;;;27.15;;
34019;SDS011;20895;51.034;3.742;2024-03-07T11:17:58;35.20;;;26.23;;
34019;SDS011;20895;51.034;3.742;2024-03-07T11:20:25;35.10;;;26.33;;
34019;SDS011;20895;51.034;3.742;2024-03-07T11:22:50;29.48;;;23.55;;
34019;SDS011;20895;51.034;3.742;2024-03-07T11:25:19;36.35;;;26.08;;
34019;SDS011;20895;51.034;3.742;2024-03-07T11:27:54;31.75;;;23.90;;
34019;SDS011;20895;51.034;3.742;2024-03-07T11:30:20;31.65;;;24.65;;
34019;SDS011;20895;51.034;3.742;2024-03-07T11:32:46;33.95;;;23.77;;
34019;SDS011;20895;51.034;3.742;2024-03-07T11:35:14;32.75;;;24.27;;
34019;SDS011;20895;51.034;3.742;2024-03-07T11:37:42;31.23;;;22.08;;
34019;SDS011;20895;51.034;3.742;2024-03-07T11:42:46;26.80;;;19.85;;
34019;SDS011;20895;51.034;3.742;2024-03-07T11:45:13;26.83;;;21.52;;
34019;SDS011;20895;51.034;3.742;2024-03-07T11:47:50;28.80;;;22.08;;
34019;SDS011;20895;51.034;3.742;2024-03-07T11:50:15;29.95;;;22.40;;
34019;SDS011;20895;51.034;3.742;2024-03-07T11:52:44;30.20;;;22.40;;
34019;SDS011;20895;51.034;3.742;2024-03-07T11:55:11;27.08;;;21.67;;
34019;SDS011;20895;51.034;3.742;2024-03-07T11:57:36;32.20;;;23.35;;
34019;SDS011;20895;51.034;3.742;2024-03-07T12:00:03;26.42;;;20.50;;
34019;SDS011;20895;51.034;3.742;2024-03-07T12:02:39;24.20;;;18.80;;
34019;SDS011;20895;51.034;3.742;2024-03-07T12:05:07;26.55;;;19.17;;
34019;SDS011;20895;51.034;3.742;2024-03-07T12:07:33;26.48;;;19.60;;
34019;SDS011;20895;51.034;3.742;2024-03-07T12:09:59;25.23;;;18.92;;
34019;SDS011;20895;51.034;3.742;2024-03-07T12:12:25;27.50;;;20.42;;
34019;SDS011;20895;51.034;3.742;2024-03-07T12:14:53;28.05;;;19.63;;
34019;SDS011;20895;51.034;3.742;2024-03-07T12:17:19;22.85;;;19.58;;
34019;SDS011;20895;51.034;3.742;2024-03-07T12:19:45;22.33;;;18.40;;
34019;SDS011;20895;51.034;3.742;2024-03-07T12:22:12;26.45;;;19.63;;
34019;SDS011;20895;51.034;3.742;2024-03-07T12:24:38;24.33;;;19.23;;
34019;SDS011;20895;51.034;3.742;2024-03-07T12:27:08;22.42;;;19.10;;
34019;SDS011;20895;51.034;3.742;2024-03-07T12:29:35;24.77;;;19.00;;
34019;SDS011;20895;51.034;3.742;2024-03-07T12:32:01;25.83;;;18.83;;
34019;SDS011;20895;51.034;3.742;2024-03-07T12:34:26;23.60;;;19.48;;
34019;SDS011;20895;51.034;3.742;2024-03-07T12:36:52;25.73;;;18.02;;
34019;SDS011;20895;51.034;3.742;2024-03-07T12:39:24;19.35;;;16.77;;
34019;SDS011;20895;51.034;3.742;2024-03-07T12:41:50;22.88;;;18.45;;
34019;SDS011;20895;51.034;3.742;2024-03-07T12:44:19;20.35;;;17.92;;
34019;SDS011;20895;51.034;3.742;2024-03-07T12:47:02;20.88;;;18.60;;
34019;SDS011;20895;51.034;3.742;2024-03-07T12:49:29;21.95;;;17.52;;
34019;SDS011;20895;51.034;3.742;2024-03-07T12:51:55;23.08;;;18.77;;
34019;SDS011;20895;51.034;3.742;2024-03-07T12:54:21;19.65;;;16.60;;
34019;SDS011;20895;51.034;3.742;2024-03-07T12:56:47;20.42;;;17.92;;
34019;SDS011;20895;51.034;3.742;2024-03-07T12:59:15;18.95;;;16.30;;
34019;SDS011;20895;51.034;3.742;2024-03-07T13:01:40;20.30;;;18.10;;
34019;SDS011;20895;51.034;3.742;2024-03-07T13:04:09;22.50;;;18.55;;
34019;SDS011;20895;51.034;3.742;2024-03-07T13:06:35;21.85;;;19.50;;
34019;SDS011;20895;51.034;3.742;2024-03-07T13:09:01;20.92;;;18.30;;
34019;SDS011;20895;51.034;3.742;2024-03-07T13:11:26;23.77;;;18.85;;
34019;SDS011;20895;51.034;3.742;2024-03-07T13:13:55;19.85;;;17.63;;
34019;SDS011;20895;51.034;3.742;2024-03-07T13:16:21;22.33;;;18.00;;
34019;SDS011;20895;51.034;3.742;2024-03-07T13:18:46;19.70;;;17.13;;
34019;SDS011;20895;51.034;3.742;2024-03-07T13:21:12;23.55;;;18.63;;
34019;SDS011;20895;51.034;3.742;2024-03-07T13:23:42;22.95;;;20.42;;
34019;SDS011;20895;51.034;3.742;2024-03-07T13:26:08;30.27;;;21.05;;
34019;SDS011;20895;51.034;3.742;2024-03-07T13:28:41;24.38;;;18.70;;
34019;SDS011;20895;51.034;3.742;2024-03-07T13:31:06;22.13;;;18.58;;
34019;SDS011;20895;51.034;3.742;2024-03-07T13:33:32;26.77;;;19.52;;
34019;SDS011;20895;51.034;3.742;2024-03-07T13:35:58;22.17;;;17.83;;
34019;SDS011;20895;51.034;3.742;2024-03-07T13:38:26;20.30;;;17.30;;
34019;SDS011;20895;51.034;3.742;2024-03-07T13:40:51;26.17;;;19.35;;
34019;SDS011;20895;51.034;3.742;2024-03-07T13:43:18;20.85;;;18.48;;
34019;SDS011;20895;51.034;3.742;2024-03-07T13:45:43;21.25;;;18.60;;
34019;SDS011;20895;51.034;3.742;2024-03-07T13:48:09;19.20;;;17.15;;
34019;SDS011;20895;51.034;3.742;2024-03-07T13:50:44;22.65;;;20.17;;
34019;SDS011;20895;51.034;3.742;2024-03-07T13:53:09;22.13;;;19.17;;
34019;SDS011;20895;51.034;3.742;2024-03-07T14:24:58;19.15;;;16.55;;
34019;SDS011;20895;51.034;3.742;2024-03-07T14:27:37;22.63;;;19.20;;
34019;SDS011;20895;51.034;3.742;2024-03-07T14:32:38;23.25;;;19.30;;
34019;SDS011;20895;51.034;3.742;2024-03-07T14:35:17;24.17;;;18.77;;
34019;SDS011;20895;51.034;3.742;2024-03-07T14:37:46;19.73;;;17.67;;
34019;SDS011;20895;51.034;3.742;2024-03-07T14:40:15;24.23;;;18.17;;
34019;SDS011;20895;51.034;3.742;2024-03-07T14:42:44;23.48;;;17.40;;
34019;SDS011;20895;51.034;3.742;2024-03-07T14:45:16;22.48;;;19.60;;
34019;SDS011;20895;51.034;3.742;2024-03-07T14:47:44;22.52;;;17.38;;
34019;SDS011;20895;51.034;3.742;2024-03-07T14:50:10;23.52;;;18.58;;
34019;SDS011;20895;51.034;3.742;2024-03-07T14:52:36;25.70;;;20.58;;
34019;SDS011;20895;51.034;3.742;2024-03-07T14:55:06;21.67;;;19.35;;